createdAt,value
2018-03-30T00:00:45.085Z,64.47
2018-03-30T00:03:12.642Z,65.82
2018-03-30T00:05:40.226Z,66.84
2018-03-30T00:08:07.824Z,67.46
2018-03-30T00:10:41.166Z,66.59
2018-03-30T00:13:09.208Z,65.14
2018-03-30T00:15:36.750Z,63.04
2018-03-30T00:18:04.349Z,63.88
2018-03-30T00:20:31.935Z,65.19
2018-03-30T00:22:59.539Z,65.77
2018-03-30T00:25:27.553Z,64.88
2018-03-30T00:27:55.468Z,63.61
2018-03-30T00:30:23.016Z,62.05
2018-03-30T00:32:50.606Z,61.35
2018-03-30T00:35:18.209Z,60.58
2018-03-30T00:37:45.746Z,60.24
2018-03-30T00:40:13.703Z,60.27
2018-03-30T00:42:41.292Z,59.51
2018-03-30T00:45:08.900Z,58.98
2018-03-30T00:47:36.919Z,58.93
2018-03-30T00:50:04.476Z,60.08
2018-03-30T00:52:32.076Z,59.92
2018-03-30T00:54:59.647Z,59.11
2018-03-30T00:57:27.201Z,61.39
2018-03-30T00:59:55.202Z,63.02
2018-03-30T01:02:23.098Z,63.18
2018-03-30T01:04:50.808Z,61.74
2018-03-30T01:07:18.363Z,60.12
2018-03-30T01:09:46.901Z,60.94
2018-03-30T01:12:14.451Z,61.00
2018-03-30T01:14:42.346Z,60.38
2018-03-30T01:17:09.943Z,60.10
2018-03-30T01:19:37.487Z,60.28
2018-03-30T01:22:05.568Z,63.31
2018-03-30T01:24:33.123Z,65.11
2018-03-30T01:27:00.711Z,65.83
2018-03-30T01:29:28.282Z,65.17
2018-03-30T01:31:55.884Z,64.57
2018-03-30T01:34:23.428Z,65.61
2018-03-30T01:36:50.966Z,66.18
2018-03-30T01:39:18.556Z,66.37
2018-03-30T01:41:46.699Z,66.86
2018-03-30T01:44:14.234Z,67.43
2018-03-30T01:46:41.832Z,68.05
2018-03-30T01:49:09.376Z,68.45
2018-03-30T01:51:37.452Z,68.47
2018-03-30T01:54:05.044Z,67.79
2018-03-30T01:56:32.640Z,68.08
2018-03-30T01:59:00.261Z,67.88
2018-03-30T02:01:28.707Z,67.75
2018-03-30T02:03:56.259Z,67.23
2018-03-30T02:06:23.813Z,66.81
2018-03-30T02:08:51.405Z,66.45
2018-03-30T02:11:19.902Z,66.13
2018-03-30T02:13:47.490Z,65.16
2018-03-30T02:16:15.040Z,63.24
2018-03-30T02:18:42.652Z,61.96
2018-03-30T02:21:10.194Z,60.23
2018-03-30T02:23:37.747Z,62.67
2018-03-30T02:26:06.754Z,64.57
2018-03-30T02:28:34.296Z,65.55
2018-03-30T02:31:02.311Z,66.79
2018-03-30T02:33:29.865Z,67.54
2018-03-30T02:35:57.413Z,66.52
2018-03-30T02:38:24.992Z,66.79
2018-03-30T02:40:53.089Z,66.80
2018-03-30T02:43:20.652Z,65.02
2018-03-30T02:45:48.742Z,63.91
2018-03-30T02:48:16.336Z,65.24
2018-03-30T02:50:43.902Z,65.92
2018-03-30T02:53:11.497Z,63.88
2018-03-30T02:55:39.100Z,62.41
2018-03-30T02:58:06.704Z,60.81
2018-03-30T03:00:35.160Z,60.28
2018-03-30T03:03:02.753Z,60.41
2018-03-30T03:05:30.295Z,59.54
2018-03-30T03:07:57.876Z,58.48
2018-03-30T03:10:25.443Z,58.08
2018-03-30T03:12:53.056Z,60.00
2018-03-30T03:15:21.279Z,60.40
2018-03-30T03:17:48.879Z,60.98
2018-03-30T03:20:16.423Z,60.61
2018-03-30T03:22:43.963Z,60.22
2018-03-30T03:25:11.568Z,59.48
2018-03-30T03:27:39.109Z,58.47
2018-03-30T03:30:06.705Z,58.02
2018-03-30T03:32:34.339Z,57.39
2018-03-30T03:35:01.919Z,60.26
2018-03-30T03:37:29.467Z,59.88
2018-03-30T03:39:57.059Z,59.76
2018-03-30T03:42:24.624Z,61.75
2018-03-30T03:44:52.735Z,61.14
2018-03-30T03:47:20.704Z,61.39
2018-03-30T03:49:48.247Z,60.64
2018-03-30T03:52:15.847Z,59.73
2018-03-30T03:54:43.390Z,59.45
2018-03-30T03:57:11.554Z,58.74
2018-03-30T03:59:39.456Z,58.21
2018-03-30T04:02:07.055Z,57.61
2018-03-30T04:04:35.813Z,57.29
2018-03-30T04:07:03.401Z,56.89
2018-03-30T04:09:31.468Z,57.33
2018-03-30T04:11:59.068Z,57.35
2018-03-30T04:14:26.664Z,56.86
2018-03-30T04:16:54.217Z,57.54
2018-03-30T04:19:22.181Z,61.27
2018-03-30T04:21:49.785Z,63.60
2018-03-30T04:24:17.339Z,63.89
2018-03-30T04:26:44.947Z,62.56
2018-03-30T04:29:12.504Z,62.15
2018-03-30T04:31:40.043Z,62.56
2018-03-30T04:34:07.644Z,61.45
2018-03-30T04:36:35.186Z,61.20
2018-03-30T04:39:03.129Z,61.12
2018-03-30T04:41:30.843Z,58.94
2018-03-30T04:43:58.456Z,56.35
2018-03-30T04:46:26.596Z,56.91
2018-03-30T04:48:54.199Z,56.90
2018-03-30T04:51:23.031Z,56.12
2018-03-30T04:53:50.628Z,55.11
2018-03-30T04:56:18.318Z,54.29
2018-03-30T04:58:45.945Z,54.13
2018-03-30T05:01:13.519Z,57.12
2018-03-30T05:03:41.152Z,56.91
2018-03-30T05:06:08.751Z,55.79
2018-03-30T05:08:36.303Z,54.23
2018-03-30T05:11:03.912Z,52.33
2018-03-30T05:13:31.461Z,49.97
2018-03-30T05:15:59.052Z,47.27
2018-03-30T05:18:26.619Z,44.87
2018-03-30T05:20:54.258Z,46.62
2018-03-30T05:23:22.000Z,47.10
2018-03-30T05:25:49.876Z,48.59
2018-03-30T05:28:17.581Z,49.54
2018-03-30T05:30:45.157Z,50.21
2018-03-30T05:33:12.765Z,50.49
2018-03-30T05:35:40.568Z,49.56
2018-03-30T05:38:08.576Z,48.95
2018-03-30T05:40:36.180Z,51.75
2018-03-30T05:43:03.745Z,52.73
2018-03-30T05:45:32.261Z,54.28
2018-03-30T05:48:00.753Z,55.15
2018-03-30T05:50:28.581Z,54.25
2018-03-30T05:52:56.948Z,52.73
2018-03-30T05:55:25.386Z,52.44
2018-03-30T05:57:53.915Z,51.97
2018-03-30T06:00:22.081Z,51.79
2018-03-30T06:02:49.702Z,50.01
2018-03-30T06:05:17.304Z,47.28
2018-03-30T06:07:45.425Z,44.89
2018-03-30T06:10:13.579Z,45.80
2018-03-30T06:12:41.862Z,46.55
2018-03-30T06:15:09.476Z,46.26
2018-03-30T06:17:37.671Z,46.14
2018-03-30T06:20:05.287Z,46.11
2018-03-30T06:22:32.856Z,45.29
2018-03-30T06:25:01.635Z,44.40
2018-03-30T06:27:29.442Z,45.82
2018-03-30T06:29:57.818Z,46.55
2018-03-30T06:32:26.608Z,45.18
2018-03-30T06:34:55.044Z,44.75
2018-03-30T06:37:22.624Z,46.58
2018-03-30T06:39:50.214Z,46.91
2018-03-30T06:42:17.813Z,47.13
2018-03-30T06:44:45.820Z,47.42
2018-03-30T06:47:13.664Z,47.39
2018-03-30T06:49:41.245Z,46.80
2018-03-30T06:52:08.889Z,47.73
2018-03-30T06:54:36.463Z,47.53
2018-03-30T06:57:04.041Z,47.26
2018-03-30T06:59:32.041Z,46.84
2018-03-30T07:01:59.722Z,46.10
2018-03-30T07:04:27.420Z,45.48
2018-03-30T07:06:55.015Z,45.08
2018-03-30T07:09:22.643Z,44.34
2018-03-30T07:11:50.252Z,43.61
2018-03-30T07:14:18.185Z,42.69
2018-03-30T07:16:45.729Z,41.63
2018-03-30T07:19:13.333Z,41.46
2018-03-30T07:21:41.019Z,41.13
2018-03-30T07:24:08.576Z,40.78
2018-03-30T07:26:36.385Z,40.62
2018-03-30T07:29:04.334Z,40.89
2018-03-30T07:31:32.222Z,41.33
2018-03-30T07:33:59.786Z,41.79
2018-03-30T07:36:27.348Z,42.21
2018-03-30T07:38:54.955Z,42.46
2018-03-30T07:41:22.972Z,42.71
2018-03-30T07:43:50.576Z,43.67
2018-03-30T07:46:18.879Z,44.40
2018-03-30T07:48:46.489Z,44.64
2018-03-30T07:51:14.083Z,45.66
2018-03-30T07:53:41.776Z,45.69
2018-03-30T07:56:09.975Z,45.14
2018-03-30T07:58:37.633Z,44.08
2018-03-30T08:01:05.559Z,43.81
2018-03-30T08:03:33.270Z,43.42
2018-03-30T08:06:01.776Z,43.23
2018-03-30T08:08:29.389Z,43.60
2018-03-30T08:10:56.948Z,43.43
2018-03-30T08:13:24.514Z,43.48
2018-03-30T08:15:52.142Z,44.31
2018-03-30T08:18:19.688Z,44.37
2018-03-30T08:20:48.134Z,43.95
2018-03-30T08:23:15.737Z,43.84
2018-03-30T08:25:43.312Z,43.47
2018-03-30T08:28:10.883Z,43.51
2018-03-30T08:30:38.540Z,43.33
2018-03-30T08:33:06.244Z,43.25
2018-03-30T08:35:33.796Z,43.14
2018-03-30T08:38:01.391Z,43.09
2018-03-30T08:40:29.325Z,43.17
2018-03-30T08:42:57.686Z,43.13
2018-03-30T08:45:25.437Z,43.38
2018-03-30T08:47:53.177Z,42.45
2018-03-30T08:50:20.740Z,42.38
2018-03-30T08:52:48.312Z,42.47
2018-03-30T08:55:15.923Z,42.43
2018-03-30T08:57:43.484Z,42.23
2018-03-30T09:00:11.189Z,42.48
2018-03-30T09:02:38.816Z,42.31
2018-03-30T09:05:06.672Z,42.33
2018-03-30T09:07:34.277Z,42.54
2018-03-30T09:10:02.226Z,42.30
2018-03-30T09:12:29.982Z,43.04
2018-03-30T09:14:57.540Z,43.12
2018-03-30T09:17:25.143Z,43.12
2018-03-30T09:19:52.902Z,43.28
2018-03-30T09:22:20.450Z,43.37
2018-03-30T09:24:48.896Z,43.51
2018-03-30T09:27:16.737Z,43.70
2018-03-30T09:29:49.885Z,43.89
2018-03-30T09:32:17.463Z,44.05
2018-03-30T09:34:45.066Z,44.13
2018-03-30T09:37:13.090Z,43.57
2018-03-30T09:39:40.994Z,43.50
2018-03-30T09:42:08.557Z,43.41
2018-03-30T09:44:36.120Z,43.53
2018-03-30T09:47:03.717Z,43.67
2018-03-30T09:49:31.324Z,43.65
2018-03-30T09:51:58.868Z,43.48
2018-03-30T09:54:26.456Z,43.06
2018-03-30T09:56:54.282Z,42.95
2018-03-30T09:59:21.887Z,43.14
2018-03-30T10:01:52.273Z,43.40
2018-03-30T10:04:24.020Z,43.45
2018-03-30T10:06:52.103Z,43.79
2018-03-30T10:09:19.698Z,43.95
2018-03-30T10:11:47.275Z,44.01
2018-03-30T10:14:14.890Z,44.12
2018-03-30T10:16:42.449Z,44.21
2018-03-30T10:19:10.469Z,44.54
2018-03-30T10:21:38.134Z,44.65
2018-03-30T10:24:05.682Z,44.81
2018-03-30T10:26:33.296Z,44.86
2018-03-30T10:29:00.847Z,45.11
2018-03-30T10:31:28.461Z,44.99
2018-03-30T10:33:56.264Z,44.86
2018-03-30T10:36:23.884Z,44.70
2018-03-30T10:38:51.460Z,44.86
2018-03-30T10:41:19.024Z,45.05
2018-03-30T10:43:46.655Z,45.17
2018-03-30T10:46:14.465Z,45.15
2018-03-30T10:48:42.239Z,45.32
2018-03-30T10:51:09.966Z,45.60
2018-03-30T10:53:37.828Z,45.75
2018-03-30T10:56:05.832Z,45.40
2018-03-30T10:58:33.465Z,45.25
2018-03-30T11:01:01.034Z,45.15
2018-03-30T11:03:28.692Z,45.35
2018-03-30T11:05:56.255Z,45.45
2018-03-30T11:08:23.812Z,45.54
2018-03-30T11:10:51.416Z,45.62
2018-03-30T11:13:19.996Z,45.57
2018-03-30T11:15:48.067Z,45.63
2018-03-30T11:18:15.668Z,45.80
2018-03-30T11:20:43.239Z,45.81
2018-03-30T11:23:10.916Z,45.96
2018-03-30T11:25:38.703Z,45.98
2018-03-30T11:28:07.154Z,45.56
2018-03-30T11:30:34.719Z,45.28
2018-03-30T11:33:02.349Z,45.07
2018-03-30T11:35:29.949Z,45.21
2018-03-30T11:37:57.524Z,45.08
2018-03-30T11:40:26.096Z,45.02
2018-03-30T11:42:53.702Z,45.17
2018-03-30T11:45:21.739Z,44.96
2018-03-30T11:47:49.519Z,44.91
2018-03-30T11:50:17.332Z,44.99
2018-03-30T11:52:45.000Z,45.18
2018-03-30T11:55:12.769Z,45.25
2018-03-30T11:57:40.538Z,45.11
2018-03-30T12:00:08.925Z,45.22
2018-03-30T12:02:37.557Z,45.33
2018-03-30T12:05:05.702Z,45.33
2018-03-30T12:07:33.483Z,45.27
2018-03-30T12:10:01.266Z,45.37
2018-03-30T12:12:28.984Z,45.47
2018-03-30T12:14:56.599Z,45.54
2018-03-30T12:17:24.589Z,45.47
2018-03-30T12:19:52.326Z,45.51
2018-03-30T12:22:20.384Z,45.34
2018-03-30T12:24:48.492Z,44.93
2018-03-30T12:27:16.946Z,45.04
2018-03-30T12:29:46.112Z,45.06
2018-03-30T12:32:15.229Z,45.28
2018-03-30T12:34:43.784Z,45.45
2018-03-30T12:37:12.472Z,45.46
2018-03-30T12:39:40.658Z,45.63
2018-03-30T12:42:08.514Z,45.82
2018-03-30T12:44:36.408Z,45.58
2018-03-30T12:47:04.343Z,45.56
2018-03-30T12:49:32.521Z,45.36
2018-03-30T12:52:00.649Z,45.25
2018-03-30T12:54:28.721Z,45.13
2018-03-30T12:56:56.959Z,45.25
2018-03-30T12:59:24.944Z,45.37
2018-03-30T13:01:54.116Z,45.35
2018-03-30T13:04:22.789Z,45.47
2018-03-30T13:06:50.721Z,45.12
2018-03-30T13:09:19.230Z,45.18
2018-03-30T13:11:47.553Z,45.15
2018-03-30T13:14:15.987Z,44.95
2018-03-30T13:16:44.094Z,45.02
2018-03-30T13:19:11.880Z,44.93
2018-03-30T13:21:39.692Z,44.91
2018-03-30T13:24:07.479Z,44.85
2018-03-30T13:26:35.511Z,45.05
2018-03-30T13:29:03.708Z,44.93
2018-03-30T13:31:32.609Z,45.05
2018-03-30T13:34:00.939Z,45.24
2018-03-30T13:36:29.162Z,45.49
2018-03-30T13:38:57.235Z,45.57
2018-03-30T13:41:25.890Z,45.56
2018-03-30T13:43:53.986Z,45.71
2018-03-30T13:46:22.026Z,45.88
2018-03-30T13:48:50.058Z,46.10
2018-03-30T13:51:29.314Z,46.16
2018-03-30T13:53:58.122Z,46.20
2018-03-30T13:56:28.818Z,46.20
2018-03-30T13:58:57.462Z,46.14
2018-03-30T14:01:43.022Z,46.05
2018-03-30T14:07:16.140Z,46.07
2018-03-30T14:09:44.677Z,46.24
2018-03-30T14:12:13.392Z,46.37
2018-03-30T14:14:41.878Z,46.35
2018-03-30T14:17:12.291Z,46.27
2018-03-30T14:19:41.482Z,46.39
2018-03-30T14:22:16.142Z,46.36
2018-03-30T14:24:49.032Z,46.41
2018-03-30T14:27:43.427Z,46.63
2018-03-30T14:30:16.705Z,46.78
2018-03-30T14:36:00.930Z,47.07
2018-03-30T14:38:40.465Z,47.25
2018-03-30T14:41:09.392Z,47.22
2018-03-30T14:43:54.779Z,47.35
2018-03-30T14:46:34.249Z,47.37
2018-03-30T14:49:03.300Z,47.34
2018-03-30T14:51:40.406Z,47.44
2018-03-30T14:54:09.620Z,47.82
2018-03-30T14:56:40.630Z,47.97
2018-03-30T14:59:22.163Z,48.07
2018-03-30T15:01:52.690Z,48.23
2018-03-30T15:07:25.698Z,48.55
2018-03-30T15:10:22.089Z,48.65
2018-03-30T15:12:59.063Z,48.76
2018-03-30T15:15:36.057Z,48.78
2018-03-30T15:18:11.609Z,48.85
2018-03-30T15:20:48.157Z,48.91
2018-03-30T15:23:22.946Z,49.07
2018-03-30T15:25:51.268Z,49.14
2018-03-30T15:28:24.149Z,49.23
2018-03-30T15:31:01.697Z,49.22
2018-03-30T15:36:48.792Z,49.34
2018-03-30T15:39:17.884Z,49.46
2018-03-30T15:41:46.568Z,49.60
2018-03-30T15:44:15.715Z,49.69
2018-03-30T15:46:45.138Z,49.61
2018-03-30T15:49:13.338Z,49.59
2018-03-30T15:54:38.010Z,49.71
2018-03-30T15:57:05.897Z,49.81
2018-03-30T15:59:34.275Z,49.93
2018-03-30T16:02:02.663Z,49.98
2018-03-30T16:04:31.292Z,50.07
2018-03-30T16:07:00.299Z,50.11
2018-03-30T16:09:32.048Z,49.97
2018-03-30T16:12:03.557Z,50.01
2018-03-30T16:14:32.842Z,50.05
2018-03-30T16:17:02.368Z,50.18
2018-03-30T16:19:30.157Z,50.29
2018-03-30T16:21:57.989Z,50.33
2018-03-30T16:24:25.864Z,50.45
2018-03-30T16:26:53.830Z,50.53
2018-03-30T16:29:21.587Z,50.71
2018-03-30T16:31:49.258Z,50.83
2018-03-30T16:34:17.420Z,51.10
2018-03-30T16:36:46.322Z,51.25
2018-03-30T16:39:14.731Z,51.40
2018-03-30T16:41:43.885Z,51.94
2018-03-30T16:44:11.996Z,52.23
2018-03-30T16:46:39.856Z,52.56
2018-03-30T16:49:07.933Z,52.88
2018-03-30T16:51:35.763Z,52.94
2018-03-30T16:54:04.189Z,53.23
2018-03-30T16:56:32.239Z,53.52
2018-03-30T16:59:00.065Z,53.64
2018-03-30T17:01:27.840Z,53.64
2018-03-30T17:03:55.604Z,53.68
2018-03-30T17:06:23.563Z,53.90
2018-03-30T17:08:51.943Z,54.00
2018-03-30T17:11:20.160Z,54.34
2018-03-30T17:13:48.658Z,54.14
2018-03-30T17:16:17.034Z,54.44
2018-03-30T17:18:46.687Z,55.20
2018-03-30T17:21:14.381Z,54.66
2018-03-30T17:23:42.775Z,54.63
2018-03-30T17:26:11.837Z,54.48
2018-03-30T17:28:40.206Z,54.40
2018-03-30T17:31:08.381Z,54.32
2018-03-30T17:33:36.573Z,54.34
2018-03-30T17:36:04.321Z,54.57
2018-03-30T17:38:32.885Z,54.75
2018-03-30T17:41:00.658Z,54.59
2018-03-30T17:43:28.623Z,54.59
2018-03-30T17:45:56.817Z,54.58
2018-03-30T17:48:24.794Z,54.44
2018-03-30T17:50:52.632Z,54.44
2018-03-30T17:53:20.109Z,54.55
2018-03-30T17:55:48.061Z,54.88
2018-03-30T17:58:17.356Z,55.37
2018-03-30T18:00:46.048Z,55.29
2018-03-30T18:03:15.490Z,55.07
2018-03-30T18:05:44.031Z,55.23
2018-03-30T18:08:13.037Z,55.47
2018-03-30T18:10:41.204Z,55.20
2018-03-30T18:13:11.412Z,55.32
2018-03-30T18:15:39.533Z,55.26
2018-03-30T18:18:09.218Z,55.56
2018-03-30T18:20:37.784Z,55.64
2018-03-30T18:23:06.770Z,55.59
2018-03-30T18:25:35.292Z,55.23
2018-03-30T18:28:04.867Z,54.98
2018-03-30T18:30:33.505Z,55.53
2018-03-30T18:33:01.512Z,55.56
2018-03-30T18:35:31.367Z,55.47
2018-03-30T18:37:59.400Z,55.22
2018-03-30T18:40:27.263Z,55.25
2018-03-30T18:42:56.155Z,55.46
2018-03-30T18:45:25.382Z,56.34
2018-03-30T18:47:55.062Z,56.24
2018-03-30T18:50:24.032Z,55.91
2018-03-30T18:52:52.239Z,56.40
2018-03-30T18:55:20.742Z,57.80
2018-03-30T18:57:49.451Z,59.45
2018-03-30T19:00:18.188Z,61.10
2018-03-30T19:02:47.288Z,60.95
2018-03-30T19:05:15.554Z,59.74
2018-03-30T19:07:44.179Z,61.24
2018-03-30T19:10:13.724Z,60.71
2018-03-30T19:12:42.783Z,61.67
2018-03-30T19:15:10.912Z,61.23
2018-03-30T19:17:38.905Z,60.11
2018-03-30T19:20:07.993Z,61.04
2018-03-30T19:22:38.302Z,59.77
2018-03-30T19:25:05.867Z,60.28
2018-03-30T19:27:34.146Z,60.03
2018-03-30T19:30:02.715Z,59.77
2018-03-30T19:32:30.582Z,59.29
2018-03-30T19:34:59.866Z,59.15
2018-03-30T19:37:28.113Z,59.21
2018-03-30T19:39:56.027Z,59.06
2018-03-30T19:42:24.020Z,58.92
2018-03-30T19:44:52.235Z,59.17
2018-03-30T19:47:20.437Z,59.07
2018-03-30T19:49:49.429Z,58.91
2018-03-30T19:52:18.426Z,59.21
2018-03-30T19:54:47.350Z,59.75
2018-03-30T19:57:16.724Z,59.52
2018-03-30T19:59:45.093Z,59.19
2018-03-30T20:02:12.862Z,59.15
2018-03-30T20:04:43.663Z,59.41
2018-03-30T20:07:12.126Z,59.04
2018-03-30T20:09:40.533Z,60.58
2018-03-30T20:12:08.220Z,62.19
2018-03-30T20:14:35.835Z,61.47
2018-03-30T20:17:04.084Z,60.74
2018-03-30T20:19:32.032Z,61.07
2018-03-30T20:22:01.947Z,60.91
2018-03-30T20:24:31.336Z,60.31
2018-03-30T20:27:00.322Z,60.19
2018-03-30T20:29:29.946Z,60.04
2018-03-30T20:31:58.214Z,60.01
2018-03-30T20:34:27.405Z,61.34
2018-03-30T20:36:55.318Z,62.62
2018-03-30T20:39:23.996Z,62.97
2018-03-30T20:41:52.331Z,62.45
2018-03-30T20:44:19.972Z,62.12
2018-03-30T20:46:47.664Z,61.56
2018-03-30T20:49:15.021Z,61.48
2018-03-30T20:51:43.007Z,62.29
2018-03-30T20:54:11.560Z,62.36
2018-03-30T20:56:39.584Z,61.89
2018-03-30T20:59:07.700Z,62.19
2018-03-30T21:01:36.144Z,63.60
2018-03-30T21:04:04.258Z,62.47
2018-03-30T21:06:32.138Z,62.66
2018-03-30T21:09:00.063Z,62.88
2018-03-30T21:11:27.964Z,61.82
2018-03-30T21:13:56.158Z,63.02
2018-03-30T21:16:23.890Z,63.07
2018-03-30T21:18:52.217Z,62.64
2018-03-30T21:21:20.029Z,63.73
2018-03-30T21:23:47.908Z,65.44
2018-03-30T21:26:15.461Z,65.65
2018-03-30T21:28:42.742Z,66.98
2018-03-30T21:31:10.456Z,66.74
2018-03-30T21:33:38.526Z,65.47
2018-03-30T21:36:06.595Z,64.92
2018-03-30T21:38:34.078Z,64.18
2018-03-30T21:41:01.175Z,63.93
2018-03-30T21:43:28.655Z,64.71
2018-03-30T21:45:55.715Z,66.10
2018-03-30T21:48:22.787Z,66.75
2018-03-30T21:50:49.816Z,65.80
2018-03-30T21:53:16.936Z,65.05
2018-03-30T21:55:43.992Z,65.63
2018-03-30T21:58:11.000Z,66.27
2018-03-30T22:00:38.080Z,65.93
2018-03-30T22:03:05.236Z,66.50
2018-03-30T22:05:32.306Z,66.56
2018-03-30T22:07:59.334Z,68.36
2018-03-30T22:10:26.395Z,68.19
2018-03-30T22:12:53.524Z,67.79
2018-03-30T22:15:20.674Z,67.06
2018-03-30T22:17:48.609Z,65.93
2018-03-30T22:20:15.637Z,65.61
2018-03-30T22:22:42.690Z,67.70
2018-03-30T22:25:09.720Z,67.84
2018-03-30T22:27:36.796Z,66.60
2018-03-30T22:30:03.817Z,65.58
2018-03-30T22:32:31.502Z,65.04
2018-03-30T22:34:58.564Z,64.59
2018-03-30T22:37:25.592Z,65.21
2018-03-30T22:39:53.274Z,66.75
2018-03-30T22:42:20.289Z,67.37
2018-03-30T22:44:47.320Z,68.43
2018-03-30T22:47:14.380Z,68.78
2018-03-30T22:49:41.400Z,67.68
2018-03-30T22:52:08.465Z,66.32
2018-03-30T22:54:35.527Z,65.04
2018-03-30T22:57:02.557Z,64.79
2018-03-30T22:59:30.364Z,67.27
2018-03-30T23:01:57.371Z,69.42
2018-03-30T23:04:24.423Z,70.24
2018-03-30T23:06:51.511Z,68.99
2018-03-30T23:09:18.535Z,68.99
2018-03-30T23:11:46.332Z,68.25
2018-03-30T23:14:13.759Z,66.91
2018-03-30T23:16:40.803Z,66.61
2018-03-30T23:19:08.394Z,66.44
2018-03-30T23:21:36.119Z,65.39
2018-03-30T23:24:03.167Z,64.43
2018-03-30T23:26:30.223Z,63.67
2018-03-30T23:28:57.241Z,63.28
2018-03-30T23:31:24.775Z,63.60
2018-03-30T23:33:52.392Z,64.39
2018-03-30T23:36:19.412Z,64.01
2018-03-30T23:38:46.495Z,63.25
2018-03-30T23:41:14.104Z,65.92
2018-03-30T23:43:41.159Z,66.53
2018-03-30T23:46:08.227Z,65.39
2018-03-30T23:48:35.739Z,64.36
2018-03-30T23:51:03.416Z,65.53
2018-03-30T23:53:30.432Z,67.51
2018-03-30T23:55:57.495Z,68.15
2018-03-30T23:58:24.514Z,67.97
